Cordell, Oklahoma
Current Conditions -  °F | °C
As of 2:53 AM on Wednesday 28 Jan 2015 (Local Time) from KCSM Reporting Station
Clear Clear  
Wind Chill: 50°   Ceiling: Unl
Heat Index: 50°   Visibility: 10mi
Dew Point: 38°   Wind: 13mph
Humidity: 63%   Direction: 190°S
Pressure: 30.03"   Gusts: NA
Location:  35.29°N, 98.99°W
Report Text: KCSM 280853Z AUTO 19011KT 10SM CLR 10/03 A3003 RMK AO2 SLP157 T01000033 56014
Loading
Personal Weather Stations






























Interactive Weather Map New forecast layout! Learn more

10-Day Weather Forecast

Advertisements
Track Severe Weather on mobile